Terminal Aerodrome Forecast
Issued by NWS Quad Cities IA IL

Home | Current Version | Previous Version | Text Only | Print | Product List | Glossary On
Versions: 1 2 3 4 5 6 7 8 9 10 11 12 13 14 15 16 17 18 19 20
058
FTUS43 KDVN 300715 AAA
TAFDBQ
TAF AMD
KDBQ 300715Z 3007/0106 20006KT P6SM SCT030 BKN070
     FM301000 23007KT P6SM OVC020
     FM301500 24010KT 6SM BR BKN008 OVC012
     FM302000 24012G18KT 5SM -RASN BR OVC012
     FM010200 26012KT 5SM BR VCSH OVC010=

USA.gov is the U.S. government's official web portal to all federal, state and local government web resources and services.